Time;durP1;ratioP1;P1;durP2;ratioP2;P2;SDS_P1;SDS_P2;PMS_P1;PMS_P2;Temp;Humidity;BMP_temperature;BMP_pressure;BME280_temperature;BME280_humidity;BME280_pressure;Samples;Min_cycle;Max_cycle;Signal;HPM_P1;HPM_P2
2023/12/28 00:01:33;;;;;;;36.60;13.30;;;;;;;-128.00;-1.00;-1.00;100595;1280;1002869;-33
2023/12/28 00:03:59;;;;;;;33.00;10.90;;;;;;;-128.00;-1.00;-1.00;100523;1280;1005013;-33
2023/12/28 00:06:25;;;;;;;34.70;12.40;;;;;;;-128.00;-1.00;-1.00;100539;1280;1003504;-32
2023/12/28 00:08:50;;;;;;;39.80;12.90;;;;;;;-128.00;-1.00;-1.00;100516;1280;1003219;-33
2023/12/28 00:11:16;;;;;;;34.10;13.10;;;;;;;-128.00;-1.00;-1.00;100471;1285;1005525;-32
2023/12/28 00:13:41;;;;;;;27.80;11.50;;;;;;;-128.00;-1.00;-1.00;100494;1279;1013520;-31
2023/12/28 00:16:07;;;;;;;32.90;13.10;;;;;;;-128.00;-1.00;-1.00;100464;1280;1003723;-31
2023/12/28 00:18:33;;;;;;;26.70;12.60;;;;;;;-128.00;-1.00;-1.00;100506;1280;1004193;-32
2023/12/28 00:20:58;;;;;;;25.80;11.50;;;;;;;-128.00;-1.00;-1.00;100438;1280;1003425;-31
2023/12/28 00:23:24;;;;;;;27.80;11.30;;;;;;;-128.00;-1.00;-1.00;100384;1280;1002828;-33
2023/12/28 00:25:49;;;;;;;25.30;10.40;;;;;;;-128.00;-1.00;-1.00;100306;1279;1004109;-32
2023/12/28 00:28:15;;;;;;;30.80;11.70;;;;;;;-128.00;-1.00;-1.00;100603;1279;1003357;-33
2023/12/28 00:30:41;;;;;;;27.20;10.60;;;;;;;-128.00;-1.00;-1.00;100506;1284;1004376;-31
2023/12/28 00:33:06;;;;;;;24.50;11.50;;;;;;;-128.00;-1.00;-1.00;100598;1280;1003704;-33
2023/12/28 00:35:32;;;;;;;31.30;12.50;;;;;;;-128.00;-1.00;-1.00;100491;1285;1012492;-29
2023/12/28 00:37:57;;;;;;;31.00;11.80;;;;;;;-128.00;-1.00;-1.00;100520;1280;1003138;-30
2023/12/28 00:40:23;;;;;;;32.60;11.70;;;;;;;-128.00;-1.00;-1.00;100571;1280;1003463;-32
2023/12/28 00:42:49;;;;;;;29.80;11.80;;;;;;;-128.00;-1.00;-1.00;100486;1279;1003774;-31
2023/12/28 00:45:14;;;;;;;29.80;11.90;;;;;;;-128.00;-1.00;-1.00;100426;1279;1003259;-33
2023/12/28 00:47:42;;;;;;;29.10;11.20;;;;;;;-128.00;-1.00;-1.00;100480;1280;1039617;-31
2023/12/28 00:50:11;;;;;;;35.40;11.60;;;;;;;-128.00;-1.00;-1.00;100503;1280;1046581;-31
2023/12/28 00:52:37;;;;;;;26.40;11.90;;;;;;;-128.00;-1.00;-1.00;100526;1280;1060316;-32
2023/12/28 00:55:03;;;;;;;;;;;;;;;-128.00;-1.00;-1.00;100300;1280;1003585;-32
2023/12/28 00:57:29;;;;;;;24.80;10.00;;;;;;;-128.00;-1.00;-1.00;100592;1280;1004510;-36
2023/12/28 00:59:55;;;;;;;26.60;10.90;;;;;;;-128.00;-1.00;-1.00;100565;1280;1003078;-33
2023/12/28 01:02:21;;;;;;;23.40;9.90;;;;;;;-128.00;-1.00;-1.00;100699;1280;1045987;-33
2023/12/28 01:04:46;;;;;;;27.70;11.20;;;;;;;-128.00;-1.00;-1.00;100531;1280;1003439;-33
2023/12/28 01:07:12;;;;;;;23.00;9.30;;;;;;;-128.00;-1.00;-1.00;100682;1280;1003776;-32
2023/12/28 01:09:37;;;;;;;26.00;11.20;;;;;;;-128.00;-1.00;-1.00;100557;1280;1003538;-33
2023/12/28 01:12:05;;;;;;;24.20;9.20;;;;;;;-128.00;-1.00;-1.00;100593;1284;1003340;-32
2023/12/28 01:14:30;;;;;;;22.30;9.60;;;;;;;-128.00;-1.00;-1.00;100464;1279;1060642;-33
2023/12/28 01:16:56;;;;;;;24.70;9.00;;;;;;;-128.00;-1.00;-1.00;100600;1280;1003518;-32
2023/12/28 01:19:23;;;;;;;18.60;8.50;;;;;;;-128.00;-1.00;-1.00;100444;1285;1013382;-30
2023/12/28 01:21:49;;;;;;;16.40;7.30;;;;;;;-128.00;-1.00;-1.00;100432;1285;1003400;-30
2023/12/28 01:24:15;;;;;;;21.00;8.70;;;;;;;-128.00;-1.00;-1.00;100526;1279;1003466;-32
2023/12/28 01:26:41;;;;;;;18.50;7.40;;;;;;;-128.00;-1.00;-1.00;100634;1279;1004134;-33
2023/12/28 01:29:06;;;;;;;18.70;8.30;;;;;;;-128.00;-1.00;-1.00;100524;1279;1003114;-31
2023/12/28 01:31:32;;;;;;;19.80;8.00;;;;;;;-128.00;-1.00;-1.00;100458;1279;1004795;-33
2023/12/28 01:33:58;;;;;;;;;;;;;;;-128.00;-1.00;-1.00;100483;1280;1004722;-32
2023/12/28 01:36:23;;;;;;;27.10;8.00;;;;;;;-128.00;-1.00;-1.00;100493;1280;1004311;-32
2023/12/28 01:38:49;;;;;;;17.70;7.80;;;;;;;-128.00;-1.00;-1.00;100520;1280;1056462;-32
2023/12/28 01:41:15;;;;;;;16.10;7.40;;;;;;;-128.00;-1.00;-1.00;100593;1280;1003532;-33
2023/12/28 01:43:44;;;;;;;16.50;7.50;;;;;;;-128.00;-1.00;-1.00;100596;1279;1002072;-31
2023/12/28 01:46:16;;;;;;;15.90;7.50;;;;;;;-128.00;-1.00;-1.00;100548;1279;1045459;-30
2023/12/28 01:48:42;;;;;;;12.60;7.20;;;;;;;-128.00;-1.00;-1.00;100551;1280;1060488;-31
2023/12/28 01:51:08;;;;;;;17.90;8.20;;;;;;;-128.00;-1.00;-1.00;100582;1280;1003640;-31
2023/12/28 02:34:05;;;;;;;20.20;8.40;;;;;;;-102.22;19.20;19874.95;100863;1282;1600247;-31
2023/12/28 02:36:31;;;;;;;20.60;8.10;;;;;;;-128.00;-1.00;-1.00;100082;1285;1011919;-32
2023/12/28 02:38:58;;;;;;;15.70;7.30;;;;;;;-128.00;-1.00;-1.00;100367;1282;1003846;-31
2023/12/28 02:41:24;;;;;;;19.70;7.70;;;;;;;-128.00;-1.00;-1.00;100511;1282;1057943;-31
2023/12/28 02:43:50;;;;;;;13.30;6.40;;;;;;;-128.00;-1.00;-1.00;100307;1282;1003558;-29
2023/12/28 02:46:16;;;;;;;16.10;7.60;;;;;;;-128.00;-1.00;-1.00;100250;1282;1004359;-31
2023/12/28 02:48:42;;;;;;;16.20;6.90;;;;;;;-128.00;-1.00;-1.00;100274;1282;1003627;-31
2023/12/28 02:51:08;;;;;;;15.20;7.40;;;;;;;-128.00;-1.00;-1.00;100304;1282;1046975;-31
2023/12/28 02:53:33;;;;;;;14.70;7.30;;;;;;;-128.00;-1.00;-1.00;100390;1282;1003792;-32
2023/12/28 02:55:59;;;;;;;14.50;7.00;;;;;;;-128.00;-1.00;-1.00;100262;1285;1003741;-29
2023/12/28 02:58:24;;;;;;;20.60;7.90;;;;;;;-128.00;-1.00;-1.00;100276;1282;1002843;-32
2023/12/28 03:00:50;;;;;;;18.90;7.00;;;;;;;-128.00;-1.00;-1.00;100421;1282;1003388;-31
2023/12/28 03:03:15;;;;;;;17.10;7.60;;;;;;;-128.00;-1.00;-1.00;100292;1282;1003839;-31
2023/12/28 03:05:41;;;;;;;16.10;7.10;;;;;;;-128.00;-1.00;-1.00;100338;1282;1003518;-30
2023/12/28 03:08:07;;;;;;;16.40;6.50;;;;;;;-128.00;-1.00;-1.00;100307;1282;1003154;-31
2023/12/28 03:10:32;;;;;;;18.60;7.70;;;;;;;-128.00;-1.00;-1.00;100273;1283;1002828;-32
2023/12/28 03:12:58;;;;;;;14.30;6.70;;;;;;;-128.00;-1.00;-1.00;100325;1282;1002803;-30
2023/12/28 03:15:23;;;;;;;17.00;6.30;;;;;;;-128.00;-1.00;-1.00;100446;1282;1003627;-31
2023/12/28 03:17:49;;;;;;;16.70;6.70;;;;;;;-128.00;-1.00;-1.00;100385;1282;1004609;-30
2023/12/28 03:20:15;;;;;;;16.40;6.20;;;;;;;-128.00;-1.00;-1.00;100242;1282;1004524;-32
2023/12/28 03:22:40;;;;;;;12.50;6.20;;;;;;;-128.00;-1.00;-1.00;100360;1282;1003757;-31
2023/12/28 03:25:06;;;;;;;15.90;6.10;;;;;;;-128.00;-1.00;-1.00;100407;1282;1002962;-32
2023/12/28 03:27:32;;;;;;;;;;;;;;;-128.00;-1.00;-1.00;100321;1284;1059034;-32
2023/12/28 03:29:58;;;;;;;15.10;6.90;;;;;;;-128.00;-1.00;-1.00;100195;1283;1003534;-31
2023/12/28 03:32:23;;;;;;;14.30;7.40;;;;;;;-128.00;-1.00;-1.00;100336;1282;1002736;-31
2023/12/28 03:34:49;;;;;;;11.30;6.80;;;;;;;-128.00;-1.00;-1.00;100517;1282;1060063;-30
2023/12/28 03:37:15;;;;;;;12.90;6.80;;;;;;;-128.00;-1.00;-1.00;100308;1282;1004987;-32
2023/12/28 03:39:40;;;;;;;15.30;6.10;;;;;;;-128.00;-1.00;-1.00;100320;1282;1004452;-32
2023/12/28 03:42:06;;;;;;;13.70;6.60;;;;;;;-128.00;-1.00;-1.00;100275;1286;1038630;-32
2023/12/28 03:44:32;;;;;;;12.80;6.20;;;;;;;-128.00;-1.00;-1.00;100395;1282;1002634;-31
2023/12/28 03:46:57;;;;;;;18.00;7.20;;;;;;;-128.00;-1.00;-1.00;100290;1282;1004105;-33
2023/12/28 03:49:23;;;;;;;13.60;6.60;;;;;;;-128.00;-1.00;-1.00;100304;1282;1004092;-32
2023/12/28 03:51:50;;;;;;;11.60;6.30;;;;;;;-128.00;-1.00;-1.00;100271;1288;1039632;-31
2023/12/28 03:54:19;;;;;;;12.20;6.70;;;;;;;-128.00;-1.00;-1.00;100247;1282;1002883;-28
2023/12/28 03:56:45;;;;;;;11.10;6.60;;;;;;;-128.00;-1.00;-1.00;100302;1282;1059266;-31
2023/12/28 03:59:11;;;;;;;17.00;7.20;;;;;;;-128.00;-1.00;-1.00;100252;1288;1002993;-29
2023/12/28 04:01:37;;;;;;;12.50;6.40;;;;;;;-128.00;-1.00;-1.00;100245;1282;1003167;-33
2023/12/28 04:04:02;;;;;;;10.90;5.80;;;;;;;-128.00;-1.00;-1.00;100365;1282;1003203;-32
2023/12/28 04:06:28;;;;;;;15.80;6.00;;;;;;;-128.00;-1.00;-1.00;100231;1282;1047386;-31
2023/12/28 04:08:54;;;;;;;14.60;5.80;;;;;;;-128.00;-1.00;-1.00;100259;1286;1002861;-30
2023/12/28 04:11:19;;;;;;;12.40;6.00;;;;;;;-128.00;-1.00;-1.00;100304;1282;1003157;-32
2023/12/28 04:13:45;;;;;;;16.70;6.40;;;;;;;-128.00;-1.00;-1.00;100189;1282;1004166;-32
2023/12/28 04:16:14;;;;;;;12.00;5.70;;;;;;;-128.00;-1.00;-1.00;100224;1281;1003410;-31
2023/12/28 04:18:41;;;;;;;10.50;5.20;;;;;;;-128.00;-1.00;-1.00;100279;1282;1046661;-32
2023/12/28 04:21:10;;;;;;;14.80;6.40;;;;;;;-128.00;-1.00;-1.00;100314;1282;1003250;-31
2023/12/28 04:23:37;;;;;;;10.40;5.90;;;;;;;-128.00;-1.00;-1.00;100353;1282;1056088;-31
2023/12/28 04:26:02;;;;;;;10.50;5.70;;;;;;;-128.00;-1.00;-1.00;100240;1282;1004168;-31
2023/12/28 04:28:28;;;;;;;9.60;5.50;;;;;;;-128.00;-1.00;-1.00;100344;1282;1004300;-34
2023/12/28 04:30:53;;;;;;;11.00;5.50;;;;;;;-128.00;-1.00;-1.00;100405;1281;1003613;-30
2023/12/28 04:33:19;;;;;;;11.70;6.00;;;;;;;-128.00;-1.00;-1.00;100323;1282;1059549;-32
2023/12/28 04:35:45;;;;;;;12.10;5.90;;;;;;;-128.00;-1.00;-1.00;100188;1288;1003706;-33
2023/12/28 04:38:11;;;;;;;;;;;;;;;-128.00;-1.00;-1.00;100342;1282;1012912;-30
2023/12/28 04:40:36;;;;;;;13.10;6.10;;;;;;;-128.00;-1.00;-1.00;100330;1282;1004251;-32
2023/12/28 04:43:02;;;;;;;11.90;5.80;;;;;;;-128.00;-1.00;-1.00;100256;1282;1058926;-32
2023/12/28 04:45:28;;;;;;;12.50;6.00;;;;;;;-128.00;-1.00;-1.00;100253;1282;1003168;-32
2023/12/28 04:47:54;;;;;;;13.30;6.40;;;;;;;-128.00;-1.00;-1.00;100210;1282;1003327;-31
2023/12/28 04:50:20;;;;;;;15.40;6.40;;;;;;;-128.00;-1.00;-1.00;100275;1283;1039343;-30
2023/12/28 04:52:45;;;;;;;10.20;5.50;;;;;;;-128.00;-1.00;-1.00;100324;1282;1003855;-31
2023/12/28 04:55:11;;;;;;;12.10;6.00;;;;;;;-128.00;-1.00;-1.00;100222;1282;1003611;-32
2023/12/28 04:57:37;;;;;;;14.40;5.70;;;;;;;-128.00;-1.00;-1.00;100244;1281;1059278;-30
2023/12/28 05:00:04;;;;;;;16.30;5.50;;;;;;;-128.00;-1.00;-1.00;100231;1282;1003224;-31
2023/12/28 05:02:30;;;;;;;13.40;5.70;;;;;;;-128.00;-1.00;-1.00;100197;1282;1002723;-30
2023/12/28 05:04:55;;;;;;;16.70;6.20;;;;;;;-128.00;-1.00;-1.00;100348;1286;1004537;-31
2023/12/28 05:07:21;;;;;;;12.00;5.80;;;;;;;-128.00;-1.00;-1.00;100286;1282;1004682;-31
2023/12/28 05:09:46;;;;;;;11.90;5.80;;;;;;;-128.00;-1.00;-1.00;100181;1281;1003353;-30
2023/12/28 05:12:12;;;;;;;12.80;5.20;;;;;;;-128.00;-1.00;-1.00;100335;1282;1004203;-31
2023/12/28 05:14:38;;;;;;;15.30;5.80;;;;;;;-128.00;-1.00;-1.00;100330;1281;1046464;-32
2023/12/28 05:17:03;;;;;;;10.70;5.60;;;;;;;-128.00;-1.00;-1.00;100170;1282;1002975;-31
2023/12/28 05:19:29;;;;;;;15.50;5.90;;;;;;;-128.00;-1.00;-1.00;100244;1283;1058715;-30
2023/12/28 05:21:55;;;;;;;14.30;6.40;;;;;;;-128.00;-1.00;-1.00;100289;1282;1004043;-32
2023/12/28 05:24:20;;;;;;;13.10;5.90;;;;;;;-128.00;-1.00;-1.00;100306;1282;1045901;-29
2023/12/28 05:26:46;;;;;;;12.40;5.90;;;;;;;-128.00;-1.00;-1.00;100295;1281;1004977;-29
2023/12/28 05:29:12;;;;;;;14.90;5.60;;;;;;;-128.00;-1.00;-1.00;100365;1286;1003278;-32
2023/12/28 05:31:38;;;;;;;13.80;5.90;;;;;;;-128.00;-1.00;-1.00;100333;1282;1003516;-31
2023/12/28 05:34:05;;;;;;;12.40;5.60;;;;;;;-128.00;-1.00;-1.00;100301;1282;1039817;-29
2023/12/28 05:36:30;;;;;;;12.10;6.00;;;;;;;-128.00;-1.00;-1.00;100390;1282;1003430;-31
2023/12/28 05:38:56;;;;;;;14.30;5.90;;;;;;;-128.00;-1.00;-1.00;100281;1285;1002980;-31
2023/12/28 05:41:22;;;;;;;11.30;6.00;;;;;;;-128.00;-1.00;-1.00;100279;1282;1002976;-29
2023/12/28 05:43:47;;;;;;;13.00;6.00;;;;;;;-128.00;-1.00;-1.00;100200;1282;1003007;-29
2023/12/28 05:46:13;;;;;;;13.20;5.90;;;;;;;-128.00;-1.00;-1.00;100264;1281;1004116;-31
2023/12/28 05:48:39;;;;;;;;;;;;;;;-128.00;-1.00;-1.00;100300;1282;1002668;-31
2023/12/28 05:51:04;;;;;;;13.20;5.40;;;;;;;-128.00;-1.00;-1.00;100270;1282;1003387;-31
2023/12/28 05:53:30;;;;;;;10.00;5.90;;;;;;;-128.00;-1.00;-1.00;100263;1282;1003553;-31
2023/12/28 05:55:56;;;;;;;15.80;6.20;;;;;;;-128.00;-1.00;-1.00;100317;1281;1005002;-34
2023/12/28 05:58:21;;;;;;;9.90;5.40;;;;;;;-128.00;-1.00;-1.00;100321;1282;1046241;-31
2023/12/28 06:00:48;;;;;;;8.40;5.00;;;;;;;-128.00;-1.00;-1.00;100271;1282;1003316;-30
2023/12/28 06:03:14;;;;;;;14.10;6.00;;;;;;;-128.00;-1.00;-1.00;100217;1282;1002598;-31
2023/12/28 06:05:39;;;;;;;14.40;7.00;;;;;;;-128.00;-1.00;-1.00;100198;1282;1004779;-31
2023/12/28 06:08:05;;;;;;;16.50;6.40;;;;;;;-128.00;-1.00;-1.00;100368;1288;1039346;-32
2023/12/28 06:10:31;;;;;;;14.00;5.70;;;;;;;-128.00;-1.00;-1.00;100314;1282;1004098;-31
2023/12/28 06:12:56;;;;;;;12.60;5.90;;;;;;;-128.00;-1.00;-1.00;100342;1282;1003009;-30
2023/12/28 06:15:22;;;;;;;11.90;5.90;;;;;;;-128.00;-1.00;-1.00;100218;1282;1059341;-32
2023/12/28 06:17:48;;;;;;;14.10;6.50;;;;;;;-128.00;-1.00;-1.00;100355;1282;1004108;-31
2023/12/28 06:20:13;;;;;;;10.10;6.20;;;;;;;-128.00;-1.00;-1.00;100361;1282;1003176;-30
2023/12/28 06:22:39;;;;;;;14.70;6.10;;;;;;;-128.00;-1.00;-1.00;100293;1282;1060296;-30
2023/12/28 06:25:06;;;;;;;12.30;6.30;;;;;;;-128.00;-1.00;-1.00;100447;1282;1004305;-30
2023/12/28 06:27:31;;;;;;;12.70;5.90;;;;;;;-128.00;-1.00;-1.00;100260;1282;1002917;-32
2023/12/28 06:29:57;;;;;;;12.00;5.70;;;;;;;-128.00;-1.00;-1.00;100334;1282;1003423;-30
2023/12/28 06:32:23;;;;;;;11.10;5.70;;;;;;;-128.00;-1.00;-1.00;100307;1285;1005040;-30
2023/12/28 06:34:48;;;;;;;10.00;6.10;;;;;;;-128.00;-1.00;-1.00;100263;1282;1004207;-32
2023/12/28 06:37:14;;;;;;;8.40;5.30;;;;;;;-128.00;-1.00;-1.00;100254;1282;1003439;-31
2023/12/28 06:39:40;;;;;;;;;;;;;;;-128.00;-1.00;-1.00;100350;1282;1012752;-32
2023/12/28 06:42:06;;;;;;;9.20;4.90;;;;;;;-128.00;-1.00;-1.00;100355;1282;1003128;-31
2023/12/28 06:44:31;;;;;;;12.70;5.80;;;;;;;-128.00;-1.00;-1.00;100242;1282;1060375;-31
2023/12/28 06:46:58;;;;;;;10.90;5.90;;;;;;;-128.00;-1.00;-1.00;100263;1282;1003705;-32
2023/12/28 06:49:24;;;;;;;10.80;5.70;;;;;;;-128.00;-1.00;-1.00;100212;1281;1012504;-32
2023/12/28 06:51:50;;;;;;;10.50;5.70;;;;;;;-128.00;-1.00;-1.00;100251;1282;1003117;-32
2023/12/28 06:54:16;;;;;;;13.60;6.20;;;;;;;-128.00;-1.00;-1.00;100342;1282;1003407;-30
2023/12/28 06:56:42;;;;;;;12.90;6.20;;;;;;;-128.00;-1.00;-1.00;100313;1282;1004791;-31
2023/12/28 06:59:11;;;;;;;13.50;6.30;;;;;;;-128.00;-1.00;-1.00;100279;1286;1002743;-32
2023/12/28 07:01:41;;;;;;;10.90;5.80;;;;;;;-128.00;-1.00;-1.00;100290;1282;1012082;-32
2023/12/28 07:04:07;;;;;;;14.60;6.60;;;;;;;-128.00;-1.00;-1.00;100318;1286;1039841;-31
2023/12/28 07:06:33;;;;;;;10.90;5.80;;;;;;;-128.00;-1.00;-1.00;100249;1281;1003701;-30
2023/12/28 07:08:59;;;;;;;10.10;5.90;;;;;;;-128.00;-1.00;-1.00;100482;1283;1003537;-32
2023/12/28 07:11:26;;;;;;;13.80;5.80;;;;;;;-128.00;-1.00;-1.00;100285;1283;1059256;-32
2023/12/28 07:13:52;;;;;;;11.90;6.20;;;;;;;-128.00;-1.00;-1.00;100172;1282;1003905;-31
2023/12/28 07:16:17;;;;;;;11.00;6.30;;;;;;;-128.00;-1.00;-1.00;100283;1282;1002928;-31
2023/12/28 07:18:43;;;;;;;12.40;6.20;;;;;;;-128.00;-1.00;-1.00;100276;1281;1002969;-30
2023/12/28 07:21:12;;;;;;;12.90;6.00;;;;;;;-128.00;-1.00;-1.00;100319;1281;1055448;-31
2023/12/28 07:23:38;;;;;;;11.60;5.60;;;;;;;-128.00;-1.00;-1.00;100247;1282;1059540;-31
2023/12/28 07:26:04;;;;;;;13.60;6.00;;;;;;;-128.00;-1.00;-1.00;100231;1282;1003806;-32
2023/12/28 07:28:29;;;;;;;12.20;6.00;;;;;;;-128.00;-1.00;-1.00;100296;1282;1003910;-30
2023/12/28 07:30:55;;;;;;;13.20;6.10;;;;;;;-128.00;-1.00;-1.00;100332;1282;1003473;-30
2023/12/28 07:33:20;;;;;;;10.80;6.10;;;;;;;-128.00;-1.00;-1.00;100183;1281;1004117;-30
2023/12/28 07:35:46;;;;;;;11.90;5.70;;;;;;;-128.00;-1.00;-1.00;100169;1282;1003597;-29
2023/12/28 07:38:12;;;;;;;9.00;5.50;;;;;;;-128.00;-1.00;-1.00;100330;1282;1003312;-29
2023/12/28 07:40:38;;;;;;;8.30;4.90;;;;;;;-128.00;-1.00;-1.00;100216;1282;1046483;-30
2023/12/28 07:43:03;;;;;;;11.70;5.20;;;;;;;-128.00;-1.00;-1.00;100339;1282;1004965;-31
2023/12/28 07:45:29;;;;;;;11.40;5.80;;;;;;;-128.00;-1.00;-1.00;100266;1282;1003129;-29
2023/12/28 07:47:55;;;;;;;9.60;5.60;;;;;;;-128.00;-1.00;-1.00;100216;1282;1012325;-30
2023/12/28 07:50:21;;;;;;;9.40;5.20;;;;;;;-128.00;-1.00;-1.00;100383;1281;1003009;-31
2023/12/28 07:52:47;;;;;;;11.30;5.20;;;;;;;-128.00;-1.00;-1.00;100315;1282;1003689;-32
2023/12/28 07:55:13;;;;;;;10.50;5.20;;;;;;;-128.00;-1.00;-1.00;100286;1287;1055096;-33
2023/12/28 07:57:38;;;;;;;12.30;5.20;;;;;;;-128.00;-1.00;-1.00;100373;1286;1003601;-31
2023/12/28 08:00:05;;;;;;;9.30;4.50;;;;;;;-128.00;-1.00;-1.00;100279;1282;1003214;-31
2023/12/28 08:02:31;;;;;;;8.00;5.10;;;;;;;-128.00;-1.00;-1.00;100253;1282;1046110;-31
2023/12/28 08:04:56;;;;;;;9.50;5.00;;;;;;;-128.00;-1.00;-1.00;100257;1282;1002331;-31
2023/12/28 08:07:22;;;;;;;9.30;5.70;;;;;;;-128.00;-1.00;-1.00;100239;1283;1003639;-30
2023/12/28 08:09:48;;;;;;;10.20;5.40;;;;;;;-128.00;-1.00;-1.00;100277;1282;1003646;-31
2023/12/28 08:12:14;;;;;;;10.60;4.80;;;;;;;-128.00;-1.00;-1.00;100356;1281;1046014;-32
2023/12/28 08:14:40;;;;;;;12.40;4.80;;;;;;;-128.00;-1.00;-1.00;100254;1282;1004092;-31
2023/12/28 08:17:05;;;;;;;13.50;5.50;;;;;;;-128.00;-1.00;-1.00;100260;1282;1003293;-31
2023/12/28 08:19:32;;;;;;;7.80;4.80;;;;;;;-128.00;-1.00;-1.00;100141;1283;1004288;-32
2023/12/28 08:21:57;;;;;;;9.60;5.00;;;;;;;-128.00;-1.00;-1.00;100370;1284;1002894;-33
2023/12/28 08:24:23;;;;;;;13.80;5.40;;;;;;;-128.00;-1.00;-1.00;100361;1283;1003943;-32
2023/12/28 08:26:49;;;;;;;8.60;5.20;;;;;;;-128.00;-1.00;-1.00;100210;1282;1004712;-32
2023/12/28 08:29:14;;;;;;;9.10;4.90;;;;;;;-128.00;-1.00;-1.00;100292;1283;1002716;-34
2023/12/28 08:31:40;;;;;;;8.30;4.50;;;;;;;-128.00;-1.00;-1.00;100248;1282;1005036;-32
2023/12/28 08:34:06;;;;;;;11.80;4.80;;;;;;;-128.00;-1.00;-1.00;100214;1282;1045225;-32
2023/12/28 08:36:32;;;;;;;12.20;5.40;;;;;;;-128.00;-1.00;-1.00;100431;1282;1004798;-33
2023/12/28 08:38:57;;;;;;;10.70;5.10;;;;;;;-128.00;-1.00;-1.00;100251;1282;1004279;-33
2023/12/28 08:41:24;;;;;;;9.20;4.90;;;;;;;-128.00;-1.00;-1.00;100216;1282;1004138;-29
2023/12/28 08:43:50;;;;;;;10.50;5.20;;;;;;;-128.00;-1.00;-1.00;100209;1283;1003150;-31
2023/12/28 08:46:15;;;;;;;9.60;4.60;;;;;;;-128.00;-1.00;-1.00;100399;1283;1003520;-31
2023/12/28 08:48:42;;;;;;;9.50;4.60;;;;;;;-128.00;-1.00;-1.00;100361;1282;1002819;-32
2023/12/28 08:51:14;;;;;;;8.80;5.10;;;;;;;-128.00;-1.00;-1.00;100299;1282;1003114;-32
2023/12/28 08:53:40;;;;;;;9.20;5.10;;;;;;;-128.00;-1.00;-1.00;100251;1282;1057966;-33
2023/12/28 08:56:13;;;;;;;9.60;5.00;;;;;;;-128.00;-1.00;-1.00;100261;1282;1003638;-32
2023/12/28 08:58:39;;;;;;;10.50;4.40;;;;;;;-128.00;-1.00;-1.00;100243;1288;1039937;-32
2023/12/28 09:01:04;;;;;;;12.30;5.60;;;;;;;-128.00;-1.00;-1.00;100425;1283;1005042;-33
2023/12/28 09:03:30;;;;;;;10.10;4.60;;;;;;;-128.00;-1.00;-1.00;100203;1283;1055060;-31
2023/12/28 09:05:56;;;;;;;9.70;4.60;;;;;;;-128.00;-1.00;-1.00;100203;1283;1005052;-33
2023/12/28 09:08:21;;;;;;;8.60;5.50;;;;;;;-128.00;-1.00;-1.00;100156;1283;1003455;-33
2023/12/28 09:10:47;;;;;;;7.00;4.30;;;;;;;-128.00;-1.00;-1.00;100360;1282;1003651;-33
2023/12/28 09:13:16;;;;;;;8.20;4.80;;;;;;;-128.00;-1.00;-1.00;100223;1282;1004692;-31
2023/12/28 09:15:43;;;;;;;10.30;4.70;;;;;;;-128.00;-1.00;-1.00;100243;1282;1059011;-32
2023/12/28 09:18:08;;;;;;;7.50;3.80;;;;;;;-128.00;-1.00;-1.00;100228;1282;1004254;-33
2023/12/28 09:20:35;;;;;;;7.60;4.80;;;;;;;-128.00;-1.00;-1.00;100268;1281;1003136;-31
2023/12/28 09:23:01;;;;;;;11.00;5.20;;;;;;;-128.00;-1.00;-1.00;100232;1282;1060867;-32
2023/12/28 09:25:26;;;;;;;;;;;;;;;-128.00;-1.00;-1.00;100239;1282;1003573;-30
2023/12/28 09:27:53;;;;;;;8.80;4.30;;;;;;;-128.00;-1.00;-1.00;100259;1282;1004712;-31
2023/12/28 09:30:19;;;;;;;9.10;5.40;;;;;;;-128.00;-1.00;-1.00;100307;1283;1039451;-33
2023/12/28 09:32:44;;;;;;;11.10;5.30;;;;;;;-128.00;-1.00;-1.00;100210;1282;1003034;-32
2023/12/28 09:35:10;;;;;;;9.70;5.10;;;;;;;-128.00;-1.00;-1.00;100223;1282;1003121;-34
2023/12/28 09:37:36;;;;;;;11.30;5.40;;;;;;;-128.00;-1.00;-1.00;100335;1282;1057935;-32
2023/12/28 09:40:03;;;;;;;15.00;6.30;;;;;;;-128.00;-1.00;-1.00;100298;1282;1003761;-31
2023/12/28 09:42:32;;;;;;;10.80;4.80;;;;;;;-128.00;-1.00;-1.00;100269;1286;1003071;-32
2023/12/28 09:44:58;;;;;;;9.90;4.90;;;;;;;-128.00;-1.00;-1.00;100231;1283;1045631;-31
2023/12/28 09:47:24;;;;;;;;;;;;;;;-128.00;-1.00;-1.00;100138;1285;1004741;-32
2023/12/28 09:49:49;;;;;;;12.70;5.50;;;;;;;-128.00;-1.00;-1.00;100207;1282;1002879;-31
2023/12/28 09:52:15;;;;;;;12.30;4.90;;;;;;;-128.00;-1.00;-1.00;100189;1282;1012897;-31
2023/12/28 09:54:40;;;;;;;9.00;4.80;;;;;;;-128.00;-1.00;-1.00;100270;1282;1003229;-32
2023/12/28 09:57:06;;;;;;;11.10;5.00;;;;;;;-128.00;-1.00;-1.00;100249;1281;1003188;-33
2023/12/28 09:59:31;;;;;;;12.10;4.90;;;;;;;-128.00;-1.00;-1.00;100292;1282;1003395;-31
2023/12/28 10:01:57;;;;;;;10.70;6.10;;;;;;;-128.00;-1.00;-1.00;100227;1282;1003306;-32
2023/12/28 10:04:23;;;;;;;15.70;6.30;;;;;;;-128.00;-1.00;-1.00;100280;1283;1039115;-33
2023/12/28 10:06:48;;;;;;;12.40;6.10;;;;;;;-128.00;-1.00;-1.00;100289;1282;1002893;-30
2023/12/28 10:09:14;;;;;;;11.20;5.10;;;;;;;-128.00;-1.00;-1.00;100255;1282;1004232;-32
2023/12/28 10:11:41;;;;;;;15.00;6.60;;;;;;;-128.00;-1.00;-1.00;100229;1283;1002741;-32
2023/12/28 10:14:06;;;;;;;10.50;5.80;;;;;;;-128.00;-1.00;-1.00;100230;1282;1003188;-31
2023/12/28 10:16:32;;;;;;;10.60;5.90;;;;;;;-128.00;-1.00;-1.00;100275;1282;1004340;-31
2023/12/28 10:18:58;;;;;;;12.30;6.30;;;;;;;-128.00;-1.00;-1.00;100475;1282;1004792;-32
2023/12/28 10:21:24;;;;;;;9.80;5.40;;;;;;;-128.00;-1.00;-1.00;100179;1282;1056561;-32
2023/12/28 10:23:49;;;;;;;14.40;6.00;;;;;;;-128.00;-1.00;-1.00;100222;1282;1003671;-31
2023/12/28 10:26:18;;;;;;;12.10;5.60;;;;;;;-128.00;-1.00;-1.00;100287;1282;1003508;-31
2023/12/28 10:28:44;;;;;;;13.50;5.90;;;;;;;-128.00;-1.00;-1.00;100249;1282;1045402;-35
2023/12/28 10:31:10;;;;;;;13.70;6.10;;;;;;;-128.00;-1.00;-1.00;100301;1286;1003366;-33
2023/12/28 10:33:36;;;;;;;9.80;6.00;;;;;;;-128.00;-1.00;-1.00;100205;1288;1002885;-32
2023/12/28 10:36:06;;;;;;;11.50;6.30;;;;;;;-128.00;-1.00;-1.00;100221;1287;1004189;-31
2023/12/28 10:38:39;;;;;;;14.40;6.70;;;;;;;-128.00;-1.00;-1.00;100294;1282;1014042;-30
2023/12/28 10:41:08;;;;;;;12.30;6.50;;;;;;;-128.00;-1.00;-1.00;100312;1281;1038483;-30
2023/12/28 10:43:47;;;;;;;10.00;5.60;;;;;;;-128.00;-1.00;-1.00;100385;1282;1046304;-32
2023/12/28 10:46:18;;;;;;;9.90;6.30;;;;;;;-128.00;-1.00;-1.00;100224;1282;1060061;-31
2023/12/28 10:48:43;;;;;;;12.00;5.70;;;;;;;-128.00;-1.00;-1.00;100437;1282;1055961;-31
2023/12/28 10:51:10;;;;;;;24.00;6.10;;;;;;;-128.00;-1.00;-1.00;100239;1287;1003057;-35
2023/12/28 10:53:49;;;;;;;11.40;6.00;;;;;;;-128.00;-1.00;-1.00;100431;1282;1003441;-31
2023/12/28 10:56:26;;;;;;;8.50;5.30;;;;;;;-128.00;-1.00;-1.00;100276;1282;1038391;-31
2023/12/28 10:59:02;;;;;;;13.10;6.00;;;;;;;-128.00;-1.00;-1.00;100206;1283;1046959;-32
2023/12/28 11:01:31;;;;;;;12.90;6.30;;;;;;;-128.00;-1.00;-1.00;100333;1283;1059921;-32
2023/12/28 11:04:09;;;;;;;13.80;6.60;;;;;;;-128.00;-1.00;-1.00;100252;1282;1056125;-32
2023/12/28 11:06:35;;;;;;;12.80;6.20;;;;;;;-128.00;-1.00;-1.00;100216;1282;1058076;-32
2023/12/28 11:09:01;;;;;;;15.20;6.40;;;;;;;-128.00;-1.00;-1.00;100293;1282;1003475;-33
2023/12/28 11:11:26;;;;;;;10.90;5.80;;;;;;;-128.00;-1.00;-1.00;100355;1282;1046975;-33
2023/12/28 11:13:53;;;;;;;13.40;5.40;;;;;;;-128.00;-1.00;-1.00;100311;1285;1003004;-32
2023/12/28 11:16:19;;;;;;;11.60;5.00;;;;;;;-128.00;-1.00;-1.00;100312;1282;1003870;-32
2023/12/28 11:18:45;;;;;;;;;;;;;;;-128.00;-1.00;-1.00;100293;1287;1004095;-34
2023/12/28 11:21:10;;;;;;;13.10;5.30;;;;;;;-128.00;-1.00;-1.00;100238;1282;1003312;-33
2023/12/28 11:23:36;;;;;;;10.20;4.70;;;;;;;-128.00;-1.00;-1.00;100410;1282;1003398;-33
2023/12/28 11:26:02;;;;;;;11.40;5.00;;;;;;;-128.00;-1.00;-1.00;100361;1282;1002744;-31
2023/12/28 11:28:28;;;;;;;7.80;4.20;;;;;;;-128.00;-1.00;-1.00;100385;1282;1003508;-32
2023/12/28 11:30:53;;;;;;;9.00;3.90;;;;;;;-128.00;-1.00;-1.00;100204;1283;1004614;-30
2023/12/28 11:33:19;;;;;;;7.90;4.00;;;;;;;-128.00;-1.00;-1.00;100216;1283;1004257;-31
2023/12/28 11:35:45;;;;;;;10.10;4.50;;;;;;;-128.00;-1.00;-1.00;100214;1283;1003431;-32
2023/12/28 11:38:11;;;;;;;8.50;4.40;;;;;;;-128.00;-1.00;-1.00;100265;1282;1002997;-33
2023/12/28 11:40:41;;;;;;;;;;;;;;;-128.00;-1.00;-1.00;100451;1282;1003196;-33
2023/12/28 11:43:14;;;;;;;11.10;4.80;;;;;;;-128.00;-1.00;-1.00;100336;1282;1012762;-34
2023/12/28 11:45:46;;;;;;;10.90;4.90;;;;;;;-128.00;-1.00;-1.00;100204;1286;1038421;-32
2023/12/28 11:48:11;;;;;;;7.60;4.80;;;;;;;-128.00;-1.00;-1.00;100246;1282;1046722;-33